createdAt,value
2022-12-28T00:01:26.585Z,0.6
2022-12-28T00:06:28.702Z,0.5
2022-12-28T00:11:32.979Z,0.6
2022-12-28T00:16:35.799Z,0.5
2022-12-28T00:21:38.074Z,0.5
2022-12-28T00:26:40.144Z,0.5
2022-12-28T00:31:42.235Z,0.5
2022-12-28T00:37:14.547Z,0.4
2022-12-28T00:41:47.277Z,0.5
2022-12-28T00:46:49.837Z,0.5
2022-12-28T00:51:52.008Z,0.5
2022-12-28T00:56:55.262Z,0.5
2022-12-28T01:01:57.831Z,0.6
2022-12-28T01:07:00.467Z,0.5
2022-12-28T01:12:02.522Z,0.5
2022-12-28T01:17:06.166Z,0.5
2022-12-28T01:22:08.231Z,0.5
2022-12-28T01:27:10.305Z,0.6
2022-12-28T01:37:12.994Z,0.6
2022-12-28T01:42:15.019Z,0.6
2022-12-28T01:47:18.653Z,0.6
2022-12-28T01:52:21.153Z,0.5
2022-12-28T01:57:23.172Z,0.5
2022-12-28T02:02:26.102Z,0.4
2022-12-28T02:07:28.371Z,0.4
2022-12-28T02:12:30.836Z,0.3
2022-12-28T02:17:35.553Z,0.3
2022-12-28T02:22:37.971Z,0.3
2022-12-28T02:27:40.054Z,0.2
2022-12-28T02:32:42.475Z,0.2
2022-12-28T02:37:44.573Z,0.2
2022-12-28T02:42:46.854Z,0.2
2022-12-28T02:47:49.075Z,0.1
2022-12-28T02:52:51.168Z,0
2022-12-28T02:57:53.234Z,-0.1
2022-12-28T03:02:55.813Z,-0.3
2022-12-28T03:07:57.918Z,-0.3
2022-12-28T03:12:59.959Z,-0.4
2022-12-28T03:18:02.237Z,-0.5
2022-12-28T03:23:04.324Z,-0.4
2022-12-28T03:28:06.312Z,-0.5
2022-12-28T03:34:10.538Z,-0.6
2022-12-28T03:39:12.572Z,-0.6
2022-12-28T03:44:17.331Z,-0.5
2022-12-28T03:49:19.614Z,-0.5
2022-12-28T03:54:21.604Z,-0.5
2022-12-28T03:59:23.643Z,-0.5
2022-12-28T04:04:25.838Z,-0.6
2022-12-28T04:09:27.846Z,-0.7
2022-12-28T04:14:29.826Z,-0.7
2022-12-28T04:19:32.063Z,-0.6
2022-12-28T04:24:34.927Z,-0.6
2022-12-28T04:29:37.128Z,-0.6
2022-12-28T04:34:49.949Z,-0.7
2022-12-28T04:39:58.687Z,-0.7
2022-12-28T04:44:50.621Z,-0.7
2022-12-28T04:49:53.406Z,-0.7
2022-12-28T04:54:55.402Z,-0.7
2022-12-28T04:59:57.464Z,-0.6
2022-12-28T05:05:00.015Z,-0.3
2022-12-28T05:10:03.822Z,-0.4
2022-12-28T05:16:17.471Z,-0.4
2022-12-28T05:21:20.161Z,-0.3
2022-12-28T05:26:22.194Z,-0.4
2022-12-28T05:31:24.451Z,-0.3
2022-12-28T05:36:31.560Z,-0.2
2022-12-28T05:41:33.546Z,-0.2
2022-12-28T05:46:35.796Z,-0.2
2022-12-28T05:51:41.361Z,-0.3
2022-12-28T05:56:43.433Z,-0.3
2022-12-28T06:01:46.195Z,-0.4
2022-12-28T06:06:48.517Z,-0.4
2022-12-28T06:11:51.940Z,-0.6
2022-12-28T06:16:54.146Z,-0.7
2022-12-28T06:21:56.208Z,-0.7
2022-12-28T06:26:59.287Z,-0.6
2022-12-28T06:32:01.867Z,-0.5
2022-12-28T06:37:03.944Z,-0.5
2022-12-28T06:42:05.962Z,-0.4
2022-12-28T06:47:08.041Z,-0.4
2022-12-28T06:52:10.348Z,-0.2
2022-12-28T06:57:13.085Z,3.3
2022-12-28T07:02:16.253Z,6.2
2022-12-28T07:07:18.708Z,6.1
2022-12-28T07:12:20.793Z,7.5
2022-12-28T07:17:23.205Z,9.6
2022-12-28T07:22:27.287Z,9.8
2022-12-28T07:27:29.354Z,10.8
2022-12-28T07:32:31.673Z,11.6
2022-12-28T07:37:33.818Z,10.7
2022-12-28T07:42:35.940Z,10.5
2022-12-28T07:47:37.957Z,13.2
2022-12-28T07:52:40.842Z,16.5
2022-12-28T07:57:42.811Z,16.4
2022-12-28T08:02:44.804Z,17.1
2022-12-28T08:07:48.058Z,16.2
2022-12-28T08:12:50.251Z,16.2
2022-12-28T08:17:52.444Z,14.4
2022-12-28T08:22:54.878Z,13.2
2022-12-28T08:27:58.215Z,14.2
2022-12-28T08:33:00.255Z,14.1
2022-12-28T08:38:02.927Z,13.8
2022-12-28T08:43:04.953Z,13.8
2022-12-28T08:48:06.901Z,14.6
2022-12-28T08:53:09.170Z,14.9
2022-12-28T08:58:11.173Z,18.3
2022-12-28T09:03:13.858Z,18.8
2022-12-28T09:08:16.425Z,18.7
2022-12-28T09:13:18.583Z,18.3
2022-12-28T09:18:20.621Z,18.6
2022-12-28T09:23:22.663Z,21.1
2022-12-28T09:28:24.657Z,23.1
2022-12-28T09:33:27.110Z,20.8
2022-12-28T09:38:31.012Z,20.2
2022-12-28T09:43:33.158Z,20.1
2022-12-28T09:48:35.822Z,20.4
2022-12-28T09:53:38.053Z,20.4
2022-12-28T09:58:47.837Z,19.7
2022-12-28T10:03:40.277Z,19.8
2022-12-28T10:08:42.624Z,22.5
2022-12-28T10:13:57.589Z,21.2
2022-12-28T10:18:49.738Z,20.9
2022-12-28T10:24:33.581Z,16.8
2022-12-28T10:28:55.538Z,16.6
2022-12-28T10:33:57.570Z,16.8
2022-12-28T10:38:59.689Z,18
2022-12-28T10:44:42.727Z,19.7
2022-12-28T10:49:06.948Z,21
2022-12-28T10:54:07.701Z,21.5
2022-12-28T10:59:09.779Z,21.5
2022-12-28T11:04:12.473Z,20.8
2022-12-28T11:09:15.588Z,20.7
2022-12-28T11:14:18.613Z,15
2022-12-28T11:19:20.745Z,14.9
2022-12-28T11:24:22.889Z,15.4
2022-12-28T11:29:25.830Z,11.5
2022-12-28T11:34:28.477Z,11.5
2022-12-28T11:39:30.808Z,11.4
2022-12-28T11:44:33.694Z,11.8
2022-12-28T11:49:35.715Z,11.8
2022-12-28T11:54:38.553Z,16.5
2022-12-28T11:59:40.932Z,16.4
2022-12-28T12:04:44.266Z,17.9
2022-12-28T12:09:46.293Z,17.9
2022-12-28T12:14:48.398Z,16.8
2022-12-28T12:19:50.506Z,13.7
2022-12-28T12:24:52.687Z,11.9
2022-12-28T12:29:55.449Z,17.6
2022-12-28T12:34:57.566Z,17.5
2022-12-28T12:39:59.946Z,17
2022-12-28T12:45:03.760Z,16.9
2022-12-28T12:50:06.102Z,16.9
2022-12-28T12:55:08.143Z,16.9
2022-12-28T13:00:10.157Z,17.2
2022-12-28T13:05:12.442Z,17.9
2022-12-28T13:10:14.850Z,16
2022-12-28T13:15:16.931Z,11.9
2022-12-28T13:20:19.205Z,10.2
2022-12-28T13:25:21.286Z,9.2
2022-12-28T13:30:23.346Z,8.7
2022-12-28T13:35:25.780Z,8.4
2022-12-28T13:40:27.900Z,8.4
2022-12-28T13:45:30.260Z,8.3
2022-12-28T13:50:32.253Z,8.3
2022-12-28T13:55:34.564Z,8.2
2022-12-28T14:00:36.691Z,8
2022-12-28T14:05:38.843Z,7.8
2022-12-28T14:10:41.019Z,7.9
2022-12-28T14:15:44.861Z,7.5
2022-12-28T14:20:47.682Z,7.4
2022-12-28T14:25:49.876Z,7.4
2022-12-28T14:30:52.066Z,7.3
2022-12-28T14:35:54.574Z,7.1
2022-12-28T14:40:56.783Z,6.9
2022-12-28T15:12:17.704Z,5.9
2022-12-28T15:17:20.098Z,5.8
2022-12-28T15:22:22.492Z,5.7
2022-12-28T15:27:24.660Z,5.5
2022-12-28T15:32:26.845Z,5.4
2022-12-28T15:37:28.972Z,5.2
2022-12-28T15:42:41.471Z,5
2022-12-28T15:47:33.522Z,4.9
2022-12-28T15:52:35.640Z,4.9
2022-12-28T15:57:37.785Z,4.8
2022-12-28T16:02:41.002Z,4.6
2022-12-28T16:07:43.517Z,4.5
2022-12-28T16:12:46.276Z,4.4
2022-12-28T16:17:58.914Z,4.3
2022-12-28T16:22:51.125Z,4.3
2022-12-28T16:27:53.249Z,4.3
2022-12-28T16:32:55.408Z,4.3
2022-12-28T16:37:57.976Z,4.2
2022-12-28T16:43:00.258Z,4.1
2022-12-28T16:48:02.332Z,4.1
2022-12-28T16:53:04.587Z,4
2022-12-28T16:58:06.720Z,3.9
2022-12-28T17:03:09.354Z,3.7
2022-12-28T17:08:11.465Z,3.6
2022-12-28T17:13:13.765Z,3.7
2022-12-28T17:18:15.845Z,3.6
2022-12-28T17:23:18.123Z,3.5
2022-12-28T17:28:20.279Z,3.5
2022-12-28T17:33:22.412Z,3.4
2022-12-28T17:38:24.586Z,3.3
2022-12-28T17:43:26.880Z,3.3
2022-12-28T17:48:28.892Z,3.2
2022-12-28T17:53:30.899Z,3.1
2022-12-28T17:58:32.923Z,3.1
2022-12-28T18:03:36.245Z,2.9
2022-12-28T18:08:38.455Z,2.9
2022-12-28T18:13:40.537Z,2.8
2022-12-28T18:18:42.730Z,2.8
2022-12-28T18:23:47.886Z,2.7
2022-12-28T18:28:49.994Z,2.7
2022-12-28T18:33:52.285Z,2.6
2022-12-28T18:38:54.900Z,2.5
2022-12-28T18:43:57.321Z,2.4
2022-12-28T18:48:59.470Z,2.5
2022-12-28T18:54:01.746Z,2.5
2022-12-28T18:59:03.910Z,2.4
2022-12-28T19:04:07.108Z,2.4
2022-12-28T19:14:10.200Z,2.3
2022-12-28T19:19:12.236Z,2.3
2022-12-28T19:24:14.434Z,2.2
2022-12-28T19:29:16.900Z,2.1
2022-12-28T19:34:18.894Z,2.1
2022-12-28T19:39:21.120Z,1.9
2022-12-28T19:44:23.515Z,1.8
2022-12-28T19:49:27.776Z,1.6
2022-12-28T19:54:29.787Z,1.6
2022-12-28T19:59:31.806Z,1.5
2022-12-28T20:04:35.184Z,1.4
2022-12-28T20:09:37.643Z,1.3
2022-12-28T20:14:39.756Z,1.4
2022-12-28T20:19:42.421Z,1.3
2022-12-28T20:24:44.648Z,1.3
2022-12-28T20:29:46.820Z,1.3
2022-12-28T20:34:48.832Z,1.4
2022-12-28T20:39:51.068Z,1.5
2022-12-28T20:44:53.183Z,1.4
2022-12-28T20:49:55.265Z,1.5
2022-12-28T20:54:57.395Z,1.5
2022-12-28T20:59:59.397Z,1.5
2022-12-28T21:05:01.901Z,1.4
2022-12-28T21:10:04.259Z,1.4
2022-12-28T21:15:06.374Z,1.4
2022-12-28T21:20:08.506Z,1.3
2022-12-28T21:25:10.707Z,1.3
2022-12-28T21:30:12.977Z,1.2
2022-12-28T21:35:15.175Z,1.2
2022-12-28T21:40:17.340Z,1.1
2022-12-28T21:45:20.040Z,1.1
2022-12-28T21:50:22.170Z,1
2022-12-28T21:55:24.412Z,1.1
2022-12-28T22:00:26.611Z,1.1
2022-12-28T22:05:28.768Z,1
2022-12-28T22:10:30.861Z,0.9
2022-12-28T22:15:33.530Z,1
2022-12-28T22:20:35.654Z,0.9
2022-12-28T22:25:37.711Z,1
2022-12-28T22:30:39.834Z,1
2022-12-28T22:35:41.857Z,1
2022-12-28T22:40:44.314Z,0.9
2022-12-28T22:45:46.681Z,0.9
2022-12-28T22:50:48.781Z,0.8
2022-12-28T22:55:50.827Z,0.8
2022-12-28T23:00:53.056Z,0.8
2022-12-28T23:05:55.562Z,0.7
2022-12-28T23:10:57.736Z,0.7
2022-12-28T23:15:59.760Z,0.7
2022-12-28T23:21:02.239Z,0.7
2022-12-28T23:26:04.305Z,0.7
2022-12-28T23:31:07.174Z,0.6
2022-12-28T23:36:09.459Z,0.6
2022-12-28T23:41:11.727Z,0.6
2022-12-28T23:46:14.040Z,0.6
2022-12-28T23:51:16.233Z,0.6
2022-12-28T23:56:18.364Z,0.5
